Time;durP1;ratioP1;P1;durP2;ratioP2;P2;SDS_P1;SDS_P2;PMS_P1;PMS_P2;Temp;Humidity;BMP_temperature;BMP_pressure;BME280_temperature;BME280_humidity;BME280_pressure;Samples;Min_cycle;Max_cycle;Signal;HPM_P1;HPM_P2
2022/02/08 00:02:12;;;;;;;17.77;10.38;;;128.00;2252.80;;;;;;4919714;29;20122;-84
2022/02/08 00:04:38;;;;;;;25.58;13.95;;;128.00;2252.80;;;;;;4919411;29;20032;-85
2022/02/08 00:07:06;;;;;;;22.58;13.77;;;128.00;2252.80;;;;;;4919371;29;20039;-83
2022/02/08 00:09:32;;;;;;;15.32;8.60;;;103.30;2227.20;;;;;;4919541;29;20023;-83
2022/02/08 00:11:59;;;;;;;18.75;10.57;;;103.30;2227.20;;;;;;4919310;29;20035;-83
2022/02/08 00:14:25;;;;;;;15.52;8.40;;;128.00;2252.80;;;;;;4919797;29;20083;-84
2022/02/08 00:16:52;;;;;;;19.40;9.27;;;103.30;2227.20;;;;;;4919639;29;20070;-85
2022/02/08 00:19:18;;;;;;;10.48;6.07;;;103.30;2227.20;;;;;;4919239;29;20392;-83
2022/02/08 00:21:44;;;;;;;13.43;6.80;;;103.20;2227.20;;;;;;4919490;29;20043;-83
2022/02/08 00:24:10;;;;;;;14.50;6.90;;;103.20;2227.20;;;;;;4919341;29;20079;-81
2022/02/08 00:26:36;;;;;;;11.48;7.15;;;103.20;2227.20;;;;;;4919309;29;20040;-82
2022/02/08 00:29:02;;;;;;;16.98;8.38;;;103.10;2227.20;;;;;;4919411;29;20030;-83
2022/02/08 00:31:28;;;;;;;13.63;6.93;;;103.20;2227.20;;;;;;4919497;29;20043;-82
2022/02/08 00:33:54;;;;;;;21.92;10.43;;;103.20;2227.20;;;;;;4918897;29;20062;-83
2022/02/08 00:36:20;;;;;;;14.18;8.20;;;103.20;2227.20;;;;;;4919326;29;20093;-83
2022/02/08 00:38:46;;;;;;;13.75;6.57;;;103.20;2227.20;;;;;;4939809;29;20044;-81
2022/02/08 00:41:12;;;;;;;12.40;7.40;;;103.20;2227.20;;;;;;4922815;29;20476;-83
2022/02/08 00:43:48;;;;;;;11.52;6.40;;;103.20;2227.20;;;;;;4922949;29;20035;-82
2022/02/08 00:46:21;;;;;;;7.85;5.22;;;103.20;2227.20;;;;;;4922876;29;20496;-82
2022/02/08 00:48:59;;;;;;;;;;;103.20;2227.20;;;;;;4923170;29;20079;-82
2022/02/08 00:51:27;;;;;;;20.05;10.60;;;103.20;2227.20;;;;;;4922670;29;19927;-83
2022/02/08 00:53:53;;;;;;;11.57;7.28;;;103.10;2227.20;;;;;;4922721;29;20031;-84
2022/02/08 00:56:20;;;;;;;13.73;7.65;;;103.20;2227.20;;;;;;4922841;29;20032;-85
2022/02/08 00:58:46;;;;;;;10.75;6.82;;;103.20;2227.20;;;;;;4922732;29;20028;-85
2022/02/08 01:01:12;;;;;;;13.13;7.65;;;103.20;2227.20;;;;;;4922503;29;20059;-83
2022/02/08 01:03:38;;;;;;;10.13;6.70;;;103.20;2227.20;;;;;;4922609;29;20032;-83
2022/02/08 01:06:06;;;;;;;13.52;7.82;;;103.20;2227.20;;;;;;4922604;29;20094;-86
2022/02/08 01:08:34;;;;;;;12.15;8.82;;;103.30;2227.20;;;;;;4922449;29;20032;-83
2022/02/08 01:11:01;;;;;;;11.32;6.20;;;103.30;2227.20;;;;;;4939598;29;20024;-84
2022/02/08 01:13:27;;;;;;;9.50;6.00;;;103.20;2227.20;;;;;;4922718;29;20039;-84
2022/02/08 01:15:55;;;;;;;8.75;5.43;;;103.20;2227.20;;;;;;4922270;29;20048;-84
2022/02/08 01:18:21;;;;;;;9.70;5.80;;;103.20;2227.20;;;;;;4921960;29;20028;-84
2022/02/08 01:20:47;;;;;;;7.22;4.97;;;103.20;2227.20;;;;;;4922520;29;20031;-82
2022/02/08 01:23:13;;;;;;;9.07;5.72;;;103.20;2227.20;;;;;;4922098;29;20043;-84
2022/02/08 01:25:47;;;;;;;7.90;5.40;;;103.10;2227.20;;;;;;4922369;29;20028;-84
2022/02/08 01:31:15;;;;;;;8.55;4.97;;;103.20;2227.20;;;;;;4938991;29;20060;-84
2022/02/08 01:36:43;;;;;;;8.90;4.68;;;103.20;2227.20;;;;;;4938649;29;20119;-85
2022/02/08 01:39:19;;;;;;;26.17;12.43;;;103.20;2227.20;;;;;;4921889;29;20075;-83
2022/02/08 01:50:14;;;;;;;14.27;7.70;;;103.10;2227.20;;;;;;4937976;29;20039;-83
2022/02/08 01:52:40;;;;;;;11.05;6.28;;;103.10;2227.20;;;;;;4921620;29;20042;-84
2022/02/08 01:55:12;;;;;;;14.05;7.32;;;103.10;2227.20;;;;;;4921807;29;20059;-83
2022/02/08 01:57:39;;;;;;;10.23;6.47;;;103.10;2227.20;;;;;;4938494;29;20026;-83
2022/02/08 02:00:07;;;;;;;11.20;6.00;;;103.10;2227.20;;;;;;4939050;29;20063;-81
2022/02/08 02:02:33;;;;;;;10.73;6.30;;;103.10;2227.20;;;;;;4921675;29;20502;-83
2022/02/08 02:04:59;;;;;;;9.18;5.93;;;103.20;2227.20;;;;;;4921498;29;20024;-84
2022/02/08 02:07:25;;;;;;;8.43;5.22;;;103.10;2227.20;;;;;;4921457;29;20036;-84
2022/02/08 02:09:51;;;;;;;9.18;6.68;;;103.00;2227.20;;;;;;4938617;29;20028;-82
2022/02/08 02:12:17;;;;;;;10.95;6.88;;;103.10;2227.20;;;;;;4920850;29;20078;-84
2022/02/08 02:14:43;;;;;;;9.10;5.63;;;103.10;2227.20;;;;;;4921420;29;20122;-84
2022/02/08 02:17:10;;;;;;;12.57;6.32;;;103.00;2227.20;;;;;;4921373;29;20403;-83
2022/02/08 02:19:38;;;;;;;13.57;7.63;;;103.00;2227.20;;;;;;4921300;29;20038;-83
2022/02/08 02:22:06;;;;;;;9.98;6.22;;;103.00;2227.20;;;;;;4921122;29;20164;-85
2022/02/08 02:24:33;;;;;;;30.38;12.93;;;103.00;2227.20;;;;;;4921168;29;20024;-80
2022/02/08 02:27:00;;;;;;;20.67;11.80;;;103.00;2227.20;;;;;;4913344;29;20472;-83
2022/02/08 02:29:29;;;;;;;15.98;8.23;;;103.00;2227.20;;;;;;4938006;29;20087;-83
2022/02/08 02:31:55;;;;;;;19.92;11.88;;;102.90;2227.20;;;;;;4921078;29;20062;-85
2022/02/08 02:34:23;;;;;;;16.45;8.57;;;103.00;2227.20;;;;;;4921092;29;20032;-84
2022/02/08 02:36:49;;;;;;;16.08;9.32;;;103.00;2227.20;;;;;;4946590;29;20032;-80
2022/02/08 02:39:19;;;;;;;12.40;6.95;;;103.00;2227.20;;;;;;4938510;29;20506;-85
2022/02/08 02:41:45;;;;;;;13.77;6.68;;;103.00;2227.20;;;;;;4921878;29;20035;-85
2022/02/08 02:44:18;;;;;;;11.30;6.55;;;103.00;2227.20;;;;;;4939042;29;20353;-84
2022/02/08 02:46:45;;;;;;;15.30;6.45;;;103.00;2227.20;;;;;;4920836;29;20031;-84
2022/02/08 02:49:11;;;;;;;12.75;7.03;;;102.90;2227.20;;;;;;4920715;29;20491;-83
2022/02/08 02:51:39;;;;;;;10.98;5.93;;;102.90;2227.20;;;;;;4920752;29;20070;-84
2022/02/08 02:54:13;;;;;;;11.20;6.03;;;102.90;2227.20;;;;;;4920644;29;20379;-85
2022/02/08 02:56:39;;;;;;;12.93;7.10;;;103.00;2227.20;;;;;;4920676;29;20055;-85
2022/02/08 02:59:05;;;;;;;12.85;7.30;;;102.90;2227.20;;;;;;4920561;29;20066;-84
2022/02/08 03:01:43;;;;;;;11.70;7.10;;;102.90;2227.20;;;;;;4919399;29;20059;-84
2022/02/08 03:19:58;;;;;;;15.80;7.65;;;102.90;2227.20;;;;;;4936712;29;20071;-82
2022/02/08 03:22:24;;;;;;;14.88;9.20;;;102.90;2227.20;;;;;;4920041;29;20036;-84
2022/02/08 03:24:51;;;;;;;19.75;11.68;;;102.70;2227.20;;;;;;4920156;29;20048;-83
2022/02/08 03:27:17;;;;;;;12.63;8.55;;;103.00;2227.20;;;;;;4936911;29;20028;-83
2022/02/08 03:29:44;;;;;;;10.65;7.35;;;103.00;2227.20;;;;;;4919999;29;20052;-84
2022/02/08 03:32:09;;;;;;;12.25;6.25;;;103.00;2227.20;;;;;;4937014;29;20031;-83
2022/02/08 03:34:35;;;;;;;21.40;14.02;;;103.00;2227.20;;;;;;4919833;29;20038;-84
2022/02/08 03:37:01;;;;;;;19.45;10.38;;;103.00;2227.20;;;;;;4936981;29;20087;-83
2022/02/08 03:39:39;;;;;;;10.07;6.93;;;102.90;2227.20;;;;;;4919658;29;20103;-85
2022/02/08 03:42:18;;;;;;;7.78;4.85;;;103.00;2227.20;;;;;;4919834;29;20441;-84
2022/02/08 03:44:49;;;;;;;13.32;7.38;;;102.90;2227.20;;;;;;4920001;29;20490;-85
2022/02/08 03:47:16;;;;;;;12.95;8.85;;;102.80;2227.20;;;;;;4919943;29;20042;-85
2022/02/08 03:49:42;;;;;;;19.73;11.23;;;102.80;2227.20;;;;;;4919789;29;20523;-84
2022/02/08 03:52:08;;;;;;;10.63;7.30;;;102.80;2227.20;;;;;;4919736;29;20123;-84
2022/02/08 03:54:34;;;;;;;11.60;7.30;;;102.80;2227.20;;;;;;4937113;29;20028;-84
2022/02/08 03:57:01;;;;;;;12.48;6.47;;;102.70;2227.20;;;;;;4919721;29;20521;-82
2022/02/08 03:59:27;;;;;;;10.32;6.28;;;102.80;2227.20;;;;;;4936688;29;20048;-84
2022/02/08 04:07:15;;;;;;;13.65;7.32;;;102.70;2227.20;;;;;;4936888;29;20070;-84
2022/02/08 04:09:42;;;;;;;11.88;5.90;;;102.70;2227.20;;;;;;4919518;29;20456;-84
2022/02/08 04:12:24;;;;;;;10.25;6.25;;;102.60;2227.20;;;;;;4920642;29;20046;-85
2022/02/08 04:15:11;;;;;;;12.40;6.75;;;102.60;2227.20;;;;;;4923823;29;20487;-83
2022/02/08 04:17:55;;;;;;;10.38;7.60;;;102.60;2227.20;;;;;;4923516;29;20027;-85
2022/02/08 04:37:32;;;;;;;13.80;7.47;;;102.50;2227.20;;;;;;4905046;29;20517;-86
2022/02/08 04:40:27;;;;;;;11.68;6.80;;;102.50;2227.20;;;;;;4939270;29;20509;-83
2022/02/08 04:43:14;;;;;;;11.57;6.95;;;102.50;2227.20;;;;;;4939284;29;20040;-84
2022/02/08 04:45:45;;;;;;;14.43;7.03;;;102.50;2227.20;;;;;;4939115;29;20032;-85
2022/02/08 04:48:25;;;;;;;11.60;7.20;;;102.50;2227.20;;;;;;4923128;29;20024;-84
2022/02/08 04:50:56;;;;;;;16.63;7.75;;;102.50;2227.20;;;;;;4923104;29;20535;-85
2022/02/08 04:53:32;;;;;;;12.98;6.90;;;102.50;2227.20;;;;;;4922882;29;20171;-84
2022/02/08 04:56:11;;;;;;;12.40;7.47;;;102.50;2227.20;;;;;;4922933;29;20064;-85
2022/02/08 04:58:46;;;;;;;11.32;6.80;;;102.50;2227.20;;;;;;4922734;29;20027;-85
2022/02/08 05:01:36;;;;;;;14.65;8.15;;;102.50;2227.20;;;;;;4923015;29;20111;-83
2022/02/08 05:29:55;;;;;;;15.27;8.55;;;102.40;2227.20;;;;;;4939112;29;20034;-83
2022/02/08 05:34:49;;;;;;;16.58;11.60;;;77.70;2227.20;;;;;;4939290;29;20034;-84
2022/02/08 05:42:47;;;;;;;17.17;10.55;;;102.40;2227.20;;;;;;4939019;29;20066;-82
2022/02/08 05:47:46;;;;;;;13.50;10.23;;;77.70;2227.20;;;;;;4938580;29;20087;-84
2022/02/08 05:53:04;;;;;;;17.10;11.40;;;77.70;2227.20;;;;;;4938860;29;20036;-84
2022/02/08 05:55:31;;;;;;;12.88;7.68;;;77.70;2227.20;;;;;;4921814;29;20032;-86
2022/02/08 05:57:57;;;;;;;18.83;10.15;;;77.60;2227.20;;;;;;4921782;29;20027;-82
2022/02/08 06:00:27;;;;;;;31.98;20.13;;;77.70;2227.20;;;;;;4921855;29;20183;-85
2022/02/08 06:02:55;;;;;;;145.85;66.60;;;102.60;2227.20;;;;;;4938183;29;20027;-83
2022/02/08 06:05:24;;;;;;;70.15;34.80;;;77.70;2227.20;;;;;;4938669;29;20527;-83
2022/02/08 06:07:50;;;;;;;60.60;33.50;;;77.70;2227.20;;;;;;4921575;29;20030;-84
2022/02/08 06:10:17;;;;;;;36.92;22.77;;;77.70;2227.20;;;;;;4921324;29;20024;-85
2022/02/08 06:12:55;;;;;;;83.57;52.30;;;77.70;2227.20;;;;;;4921641;29;20035;-82
2022/02/08 06:15:24;;;;;;;25.35;14.77;;;77.70;2227.20;;;;;;4921701;29;20028;-84
2022/02/08 06:17:52;;;;;;;17.75;11.30;;;77.70;2227.20;;;;;;4921357;29;20406;-84
2022/02/08 06:20:18;;;;;;;49.28;31.02;;;77.60;2227.20;;;;;;4938477;29;20027;-84
2022/02/08 06:22:44;;;;;;;48.50;32.17;;;77.60;2227.20;;;;;;4921168;29;20035;-85
2022/02/08 06:25:14;;;;;;;23.27;16.30;;;77.60;2227.20;;;;;;4921333;29;20038;-83
2022/02/08 06:27:41;;;;;;;25.17;15.20;;;77.60;2227.20;;;;;;4921195;29;20024;-84
2022/02/08 06:30:08;;;;;;;15.93;11.50;;;77.70;2227.20;;;;;;4921159;29;20127;-83
2022/02/08 06:32:35;;;;;;;19.02;12.75;;;77.70;2227.20;;;;;;4938312;29;20039;-84
2022/02/08 06:35:06;;;;;;;24.15;13.80;;;77.60;2227.20;;;;;;4920870;29;20024;-82
2022/02/08 06:37:34;;;;;;;25.33;14.98;;;77.70;2227.20;;;;;;4920916;29;20031;-83
2022/02/08 06:40:00;;;;;;;22.17;14.25;;;77.70;2227.20;;;;;;4920630;29;20138;-84
2022/02/08 06:42:27;;;;;;;16.75;11.15;;;77.70;2227.20;;;;;;4920923;29;20176;-86
2022/02/08 06:44:52;;;;;;;15.35;10.23;;;102.40;2227.20;;;;;;4937487;29;20362;-81
2022/02/08 06:47:18;;;;;;;23.40;14.07;;;77.70;2227.20;;;;;;4921006;29;20043;-84
2022/02/08 06:49:44;;;;;;;26.58;16.23;;;77.70;2227.20;;;;;;4921031;29;20068;-85
2022/02/08 06:52:10;;;;;;;116.63;58.13;;;77.70;2227.20;;;;;;4920495;29;20387;-82
2022/02/08 06:54:36;;;;;;;25.73;15.48;;;102.40;2227.20;;;;;;4920618;29;20031;-82
2022/02/08 06:57:01;;;;;;;67.13;37.20;;;102.40;2227.20;;;;;;4920611;29;20064;-82
2022/02/08 06:59:30;;;;;;;29.98;17.88;;;102.40;2227.20;;;;;;4937396;29;20439;-84
2022/02/08 07:01:56;;;;;;;20.80;12.07;;;102.50;2227.20;;;;;;4920550;29;20160;-82
2022/02/08 07:04:21;;;;;;;18.45;11.57;;;102.50;2227.20;;;;;;4920417;29;20118;-82
2022/02/08 07:06:47;;;;;;;19.30;11.63;;;102.40;2227.20;;;;;;4920173;29;20034;-82
2022/02/08 07:09:14;;;;;;;21.40;13.27;;;102.50;2227.20;;;;;;4920386;29;20118;-84
2022/02/08 07:11:45;;;;;;;22.20;13.95;;;102.50;2227.20;;;;;;4920267;29;20042;-83
2022/02/08 07:14:10;;;;;;;23.25;16.50;;;102.50;2227.20;;;;;;4933098;29;20042;-80
2022/02/08 07:16:36;;;;;;;18.63;12.60;;;102.40;2227.20;;;;;;4939475;29;20028;-84
2022/02/08 07:19:02;;;;;;;18.67;11.70;;;102.50;2227.20;;;;;;4921836;29;20127;-83
2022/02/08 07:21:28;;;;;;;21.55;14.63;;;102.50;2227.20;;;;;;4921286;29;20035;-84
2022/02/08 07:23:54;;;;;;;17.60;11.10;;;102.50;2227.20;;;;;;4920383;29;20074;-83
2022/02/08 07:26:21;;;;;;;17.73;10.82;;;102.50;2227.20;;;;;;4919978;29;20023;-83
2022/02/08 07:28:47;;;;;;;21.50;12.95;;;102.50;2227.20;;;;;;4920140;29;20029;-82
2022/02/08 07:31:22;;;;;;;18.63;11.25;;;102.50;2227.20;;;;;;4920016;29;20079;-83
2022/02/08 07:34:01;;;;;;;23.23;15.10;;;102.60;2227.20;;;;;;4919821;29;20027;-83
2022/02/08 07:39:36;;;;;;;27.23;15.35;;;102.60;2227.20;;;;;;4900613;29;20043;-83
2022/02/08 07:42:02;;;;;;;33.20;14.38;;;102.60;2227.20;;;;;;4919845;29;20176;-82
2022/02/08 07:44:28;;;;;;;17.23;10.57;;;102.50;2227.20;;;;;;4919970;29;20123;-82
2022/02/08 07:46:54;;;;;;;20.80;11.52;;;102.60;2227.20;;;;;;4919058;29;20436;-82
2022/02/08 07:49:20;;;;;;;24.70;12.65;;;102.60;2227.20;;;;;;4936923;29;20425;-82
2022/02/08 07:51:46;;;;;;;23.15;14.07;;;103.00;2227.20;;;;;;4920058;29;20167;-84
2022/02/08 07:54:11;;;;;;;16.02;10.05;;;102.60;2227.20;;;;;;4937210;29;20035;-83
2022/02/08 07:56:37;;;;;;;19.95;13.68;;;102.60;2227.20;;;;;;4954580;29;20039;-81
2022/02/08 07:59:03;;;;;;;20.23;12.07;;;102.50;2227.20;;;;;;4937125;29;20042;-82
2022/02/08 08:01:29;;;;;;;21.48;14.88;;;102.50;2227.20;;;;;;4937364;29;20031;-81
2022/02/08 08:03:55;;;;;;;18.90;11.57;;;102.50;2227.20;;;;;;4937649;29;20031;-80
2022/02/08 08:06:21;;;;;;;28.13;16.40;;;102.60;2227.20;;;;;;4937103;29;20027;-79
2022/02/08 08:08:47;;;;;;;23.10;12.85;;;102.60;2227.20;;;;;;4954821;29;20035;-82
2022/02/08 08:11:20;;;;;;;24.33;15.18;;;102.60;2227.20;;;;;;4926227;29;20026;-79
2022/02/08 08:13:59;;;;;;;27.38;15.13;;;102.60;2227.20;;;;;;4930916;29;20534;-82
2022/02/08 08:21:38;;;;;;;16.25;11.10;;;102.60;2227.20;;;;;;4954098;29;20078;-84
2022/02/08 08:24:05;;;;;;;15.60;8.90;;;102.70;2227.20;;;;;;4937758;29;20384;-84
2022/02/08 08:26:32;;;;;;;23.35;14.57;;;102.70;2227.20;;;;;;4938088;29;20059;-83
2022/02/08 08:28:58;;;;;;;26.27;17.02;;;102.70;2227.20;;;;;;4955249;29;20460;-83
2022/02/08 08:31:24;;;;;;;17.17;10.57;;;102.70;2227.20;;;;;;4938260;29;20027;-84
2022/02/08 08:33:50;;;;;;;19.17;10.55;;;102.60;2227.20;;;;;;4938466;29;20083;-83
2022/02/08 08:36:18;;;;;;;21.05;12.52;;;102.70;2227.20;;;;;;4955658;29;20439;-83
2022/02/08 08:38:49;;;;;;;21.50;12.75;;;102.70;2227.20;;;;;;4937928;28;20147;-80
2022/02/08 08:41:26;;;;;;;21.40;14.43;;;102.70;2227.20;;;;;;4938147;29;20069;-83
2022/02/08 08:44:35;;;;;;;20.38;11.73;;;102.70;2227.20;;;;;;4938081;29;20037;-82
2022/02/08 08:52:23;;;;;;;21.95;12.10;;;102.90;2227.20;;;;;;4955373;29;20031;-82
2022/02/08 08:54:49;;;;;;;29.25;15.70;;;102.90;2227.20;;;;;;4938105;29;20031;-82
2022/02/08 08:57:15;;;;;;;24.55;16.02;;;103.00;2227.20;;;;;;4937817;29;20042;-80
2022/02/08 08:59:41;;;;;;;22.73;12.90;;;103.00;2227.20;;;;;;4941324;29;20399;-79
2022/02/08 09:02:07;;;;;;;22.98;13.30;;;103.10;2227.20;;;;;;4941498;29;20031;-77
2022/02/08 09:04:39;;;;;;;38.33;21.88;;;103.10;2227.20;;;;;;4941180;29;20034;-81
2022/02/08 09:07:08;;;;;;;36.78;20.05;;;103.20;2227.20;;;;;;4958807;29;20027;-82
2022/02/08 09:09:38;;;;;;;23.80;11.88;;;103.20;2227.20;;;;;;4941325;29;20063;-82
2022/02/08 09:15:07;;;;;;;18.10;11.55;;;103.30;2227.20;;;;;;4958765;29;20034;-81
2022/02/08 09:18:13;;;;;;;16.70;10.05;;;128.00;2252.80;;;;;;4940956;29;20023;-82
2022/02/08 09:28:57;;;;;;;19.17;12.23;;;128.20;2252.80;;;;;;4958458;29;20031;-80
2022/02/08 09:31:23;;;;;;;17.83;8.15;;;128.20;2252.80;;;;;;4941384;29;20062;-83
2022/02/08 09:33:49;;;;;;;15.23;8.45;;;128.20;2252.80;;;;;;4940932;29;20118;-82
2022/02/08 09:36:24;;;;;;;14.27;7.60;;;128.10;2252.80;;;;;;4940893;29;20114;-83
2022/02/08 09:38:51;;;;;;;19.80;11.00;;;128.20;2252.80;;;;;;4940759;29;20162;-83
2022/02/08 09:41:21;;;;;;;25.90;17.35;;;128.30;2252.80;;;;;;4941100;29;20114;-84
2022/02/08 09:43:49;;;;;;;19.05;11.98;;;128.60;2252.80;;;;;;4940967;29;20467;-80
2022/02/08 09:46:16;;;;;;;31.35;15.07;;;128.70;2252.80;;;;;;4939780;29;20593;-81
2022/02/08 09:49:15;;;;;;;19.67;8.90;;;128.70;2252.80;;;;;;4940416;29;20082;-82
2022/02/08 09:51:38;;;;;;;20.80;10.13;;;128.80;2252.80;;;;;;4953601;29;20044;-81
2022/02/08 09:54:04;;;;;;;14.50;8.77;;;128.90;2252.80;;;;;;4940245;29;20031;-79
2022/02/08 09:56:30;;;;;;;19.10;9.95;;;128.90;2252.80;;;;;;4940279;29;20045;-81
2022/02/08 09:58:56;;;;;;;31.00;18.05;;;153.60;2252.80;;;;;;4957442;29;20051;-80
2022/02/08 10:01:24;;;;;;;28.05;14.30;;;153.60;2252.80;;;;;;4939832;29;20032;-81
2022/02/08 10:03:59;;;;;;;12.73;5.55;;;153.70;2252.80;;;;;;4940372;29;20083;-80
2022/02/08 10:06:26;;;;;;;15.63;7.18;;;153.60;2252.80;;;;;;4940591;29;20530;-80
2022/02/08 10:09:03;;;;;;;34.08;20.60;;;128.60;2252.80;;;;;;4956492;29;20019;-79
2022/02/08 10:11:55;;;;;;;20.98;8.30;;;153.60;2252.80;;;;;;4955898;28;20050;-80
2022/02/08 10:22:36;;;;;;;21.00;12.60;;;153.80;2252.80;;;;;;4907571;29;20039;-79
2022/02/08 10:25:04;;;;;;;25.85;12.70;;;153.90;2252.80;;;;;;4938818;29;20047;-81
2022/02/08 10:27:36;;;;;;;19.30;11.35;;;154.00;2252.80;;;;;;4956590;29;20023;-81
2022/02/08 10:38:45;;;;;;;13.02;6.97;;;154.20;2252.80;;;;;;4956749;29;20030;-80
2022/02/08 10:41:13;;;;;;;18.77;10.95;;;153.90;2252.80;;;;;;4956882;29;20069;-79
2022/02/08 10:43:40;;;;;;;18.50;10.73;;;153.90;2252.80;;;;;;4956222;29;20023;-80
2022/02/08 10:46:18;;;;;;;20.50;11.55;;;154.00;2252.80;;;;;;4957101;29;20372;-79
2022/02/08 10:48:44;;;;;;;12.13;6.03;;;154.00;2252.80;;;;;;4939324;29;20027;-79
2022/02/08 10:51:12;;;;;;;17.98;11.70;;;154.00;2252.80;;;;;;4956703;29;20027;-79
2022/02/08 10:53:50;;;;;;;12.52;6.07;;;154.30;2252.80;;;;;;4956599;29;20036;-81
2022/02/08 10:56:16;;;;;;;12.15;5.22;;;154.20;2252.80;;;;;;4939217;29;20185;-80
2022/02/08 10:58:53;;;;;;;11.50;5.32;;;154.30;2252.80;;;;;;4939305;29;20471;-81
2022/02/08 11:01:24;;;;;;;13.63;6.30;;;154.40;2252.80;;;;;;4956581;29;20019;-81
2022/02/08 11:04:13;;;;;;;20.33;10.38;;;154.50;2252.80;;;;;;4939059;29;20119;-77
2022/02/08 11:06:47;;;;;;;11.15;4.93;;;154.50;2252.80;;;;;;4939205;29;20027;-79
2022/02/08 11:14:44;;;;;;;15.00;9.05;;;179.20;2252.80;;;;;;4956318;29;20086;-80
2022/02/08 11:25:31;;;;;;;12.30;5.75;;;179.40;2201.60;;;;;;4955919;29;20069;-79
2022/02/08 11:28:13;;;;;;;18.55;5.82;;;179.20;2201.60;;;;;;4955196;29;20472;-79
2022/02/08 11:30:52;;;;;;;12.27;5.80;;;154.50;2252.80;;;;;;4938566;29;20035;-78
2022/02/08 11:44:33;;;;;;;13.68;6.28;;;154.40;2176.00;;;;;;4955909;29;20031;-76
2022/02/08 11:47:25;;;;;;;14.90;8.30;;;179.20;2176.00;;;;;;4938705;29;20038;-78
2022/02/08 11:50:09;;;;;;;18.30;5.70;;;154.40;2201.60;;;;;;4951665;29;20023;-77
2022/02/08 12:06:11;;;;;;;20.05;7.75;;;154.40;2176.00;;;;;;4955256;29;20038;-79
2022/02/08 12:08:42;;;;;;;29.20;14.43;;;154.40;2227.20;;;;;;4938454;29;20534;-79
2022/02/08 12:11:21;;;;;;;21.80;9.27;;;154.50;2252.80;;;;;;4937978;29;20031;-79
2022/02/08 12:27:02;;;;;;;30.17;19.35;;;154.40;2227.20;;;;;;4955255;29;20118;-80
2022/02/08 12:33:23;;;;;;;10.20;5.65;;;154.20;2176.00;;;;;;4956264;28;20451;-79
2022/02/08 12:39:41;;;;;;;32.50;20.73;;;154.20;2252.80;;;;;;4941652;29;20033;-80
2022/02/08 12:55:59;;;;;;;23.42;12.02;;;154.30;2201.60;;;;;;4899299;29;20028;-80
2022/02/08 12:59:39;;;;;;;23.67;13.45;;;154.30;2176.00;;;;;;4954085;29;20039;-79
2022/02/08 14:02:26;;;;;;;23.27;11.73;;;179.50;2124.80;;;;;;4957663;29;20046;-79
2022/02/08 14:05:31;;;;;;;27.65;15.63;;;179.30;2150.40;;;;;;4956995;29;20387;-79
2022/02/08 14:07:56;;;;;;;28.08;13.38;;;179.30;2176.00;;;;;;4956961;29;20115;-79
2022/02/08 14:10:41;;;;;;;31.17;16.88;;;154.50;2201.60;;;;;;4940281;29;20063;-78
2022/02/08 14:16:06;;;;;;;21.25;12.98;;;179.20;2227.20;;;;;;4957485;29;20118;-80
2022/02/08 15:09:26;;;;;;;25.67;14.13;;;153.80;2252.80;;;;;;4898185;29;20090;-79
2022/02/08 15:14:39;;;;;;;29.08;19.27;;;153.80;2252.80;;;;;;4956442;29;20387;-80
2022/02/08 15:17:05;;;;;;;25.08;14.23;;;153.80;2252.80;;;;;;4938827;29;20023;-77
2022/02/08 15:19:31;;;;;;;26.23;12.65;;;153.80;2252.80;;;;;;4938595;29;20152;-81
2022/02/08 15:21:58;;;;;;;23.15;13.63;;;153.80;2252.80;;;;;;4938867;29;20059;-80
2022/02/08 15:24:24;;;;;;;26.90;14.07;;;153.80;2252.80;;;;;;4956405;29;20090;-77
2022/02/08 15:26:53;;;;;;;31.13;18.27;;;153.80;2252.80;;;;;;4938694;29;20126;-78
2022/02/08 15:29:19;;;;;;;34.55;19.63;;;153.80;2252.80;;;;;;4956009;29;20081;-78
2022/02/08 15:31:45;;;;;;;37.90;19.25;;;153.80;2252.80;;;;;;4938736;29;20149;-78
2022/02/08 15:34:11;;;;;;;31.85;21.13;;;153.80;2252.80;;;;;;4938468;29;20067;-78
2022/02/08 15:36:38;;;;;;;28.88;14.60;;;153.80;2252.80;;;;;;4955934;29;20027;-78
2022/02/08 15:39:08;;;;;;;38.75;16.85;;;153.70;2252.80;;;;;;4938178;29;20054;-75
2022/02/08 15:41:39;;;;;;;23.92;12.50;;;153.70;2252.80;;;;;;4938706;29;20038;-77
2022/02/08 15:44:08;;;;;;;30.40;17.05;;;153.60;2252.80;;;;;;4938563;29;20035;-75
2022/02/08 15:46:35;;;;;;;58.08;30.55;;;153.60;2252.80;;;;;;4938037;29;20023;-79
2022/02/08 15:49:01;;;;;;;32.55;19.48;;;153.60;2252.80;;;;;;4938596;29;20082;-79
2022/02/08 15:51:32;;;;;;;28.17;14.20;;;153.60;2252.80;;;;;;4938330;29;20031;-78
2022/02/08 15:54:11;;;;;;;39.72;20.75;;;128.90;2252.80;;;;;;4938418;29;20376;-78
2022/02/08 15:56:56;;;;;;;33.50;16.95;;;128.90;2252.80;;;;;;4938397;29;20027;-74
2022/02/08 16:07:34;;;;;;;35.47;20.88;;;153.60;2252.80;;;;;;4955104;29;20498;-77
2022/02/08 16:10:08;;;;;;;39.58;26.02;;;153.60;2252.80;;;;;;4955615;29;20071;-79
2022/02/08 16:15:25;;;;;;;50.15;26.98;;;153.60;2252.80;;;;;;4954980;29;20037;-77
2022/02/08 16:20:40;;;;;;;28.23;16.13;;;128.90;2252.80;;;;;;4955591;29;20387;-80
2022/02/08 16:26:23;;;;;;;29.92;14.82;;;153.60;2252.80;;;;;;4858965;29;20029;-79
2022/02/08 16:51:30;;;;;;;25.33;12.15;;;128.80;2252.80;;;;;;4954982;29;20023;-79
2022/02/08 16:58:56;;;;;;;24.80;13.43;;;128.70;2252.80;;;;;;4955143;29;20050;-82
2022/02/08 17:01:28;;;;;;;15.25;8.27;;;128.70;2252.80;;;;;;4955492;29;20038;-80
2022/02/08 17:03:54;;;;;;;40.30;21.35;;;128.70;2252.80;;;;;;4937383;29;20035;-81
2022/02/08 17:06:26;;;;;;;20.90;10.88;;;128.60;2252.80;;;;;;4955358;29;20078;-80
2022/02/08 17:09:05;;;;;;;16.63;8.32;;;128.60;2252.80;;;;;;4955094;29;20505;-81
2022/02/08 17:46:18;;;;;;;31.48;17.23;;;128.60;2252.80;;;;;;4957480;29;20026;-77
2022/02/08 17:48:45;;;;;;;21.40;12.27;;;128.50;2252.80;;;;;;4940670;29;20490;-80
2022/02/08 17:51:11;;;;;;;29.27;16.58;;;128.60;2252.80;;;;;;4957883;29;20027;-81
2022/02/08 17:53:37;;;;;;;28.33;16.60;;;128.60;2252.80;;;;;;4957444;29;20049;-81
2022/02/08 17:56:04;;;;;;;23.88;12.75;;;128.60;2252.80;;;;;;4940621;29;20023;-82
2022/02/08 17:58:30;;;;;;;25.27;13.43;;;128.60;2252.80;;;;;;4957792;29;20024;-81
2022/02/08 18:00:57;;;;;;;30.75;16.98;;;128.60;2252.80;;;;;;4940077;29;20387;-81
2022/02/08 18:03:23;;;;;;;22.77;13.98;;;128.60;2252.80;;;;;;4957698;29;20027;-80
2022/02/08 18:05:49;;;;;;;40.53;19.52;;;128.60;2252.80;;;;;;4957310;29;20038;-79
2022/02/08 18:08:15;;;;;;;17.80;10.88;;;128.40;2252.80;;;;;;4940094;29;20032;-78
2022/02/08 18:10:44;;;;;;;27.35;15.65;;;128.40;2252.80;;;;;;4940270;29;20075;-80
2022/02/08 18:13:14;;;;;;;21.95;12.85;;;128.40;2252.80;;;;;;4939957;29;20491;-80
2022/02/08 18:15:40;;;;;;;16.75;11.05;;;128.40;2252.80;;;;;;4957352;29;20026;-80
2022/02/08 18:18:18;;;;;;;25.48;12.60;;;128.40;2252.80;;;;;;4940156;29;20035;-80
2022/02/08 18:20:49;;;;;;;21.17;11.45;;;128.40;2252.80;;;;;;4939838;29;20032;-80
2022/02/08 18:53:15;;;;;;;18.23;10.25;;;128.50;2252.80;;;;;;4936555;29;20435;-77
2022/02/08 19:12:12;;;;;;;30.40;16.00;;;128.40;2252.80;;;;;;4936346;29;20027;-79
2022/02/08 19:20:04;;;;;;;49.17;25.98;;;128.40;2252.80;;;;;;4936298;29;20075;-81
2022/02/08 19:22:30;;;;;;;21.67;13.00;;;128.40;2252.80;;;;;;4919636;29;20079;-81
2022/02/08 19:24:56;;;;;;;21.83;13.68;;;128.40;2252.80;;;;;;4918290;29;20024;-83
2022/02/08 19:27:22;;;;;;;24.40;14.38;;;128.30;2252.80;;;;;;4936342;29;20034;-80
2022/02/08 19:29:48;;;;;;;22.48;13.15;;;128.30;2252.80;;;;;;4919153;29;20058;-79
2022/02/08 19:32:14;;;;;;;28.35;15.98;;;128.30;2252.80;;;;;;4917996;29;20040;-79
2022/02/08 19:34:45;;;;;;;17.98;11.85;;;128.30;2252.80;;;;;;4936219;29;20023;-77
2022/02/08 19:37:12;;;;;;;29.13;16.80;;;128.30;2252.80;;;;;;4936056;29;20027;-80
2022/02/08 19:39:40;;;;;;;33.00;19.48;;;128.30;2252.80;;;;;;4918822;29;20051;-79
2022/02/08 19:42:08;;;;;;;28.45;15.63;;;128.20;2252.80;;;;;;4934674;29;20122;-79
2022/02/08 19:44:34;;;;;;;25.10;13.73;;;128.30;2252.80;;;;;;4916728;29;20032;-78
2022/02/08 19:47:02;;;;;;;23.48;14.93;;;128.20;2252.80;;;;;;4934104;29;20070;-78
2022/02/08 19:49:28;;;;;;;22.00;13.93;;;128.30;2252.80;;;;;;4936717;29;20030;-75
2022/02/08 19:51:54;;;;;;;21.10;12.05;;;128.30;2252.80;;;;;;4953399;29;20031;-80